Time;durP1;ratioP1;P1;durP2;ratioP2;P2;SDS_P1;SDS_P2;PMS_P1;PMS_P2;Temp;Humidity;BMP_temperature;BMP_pressure;BME280_temperature;BME280_humidity;BME280_pressure;Samples;Min_cycle;Max_cycle;Signal;HPM_P1;HPM_P2
2022/05/28 00:00:26;;;;;;;2.22;2.00;;;21.40;52.30;;;;;;4974360;28;20196;-61
2022/05/28 00:02:54;;;;;;;1.92;1.70;;;21.40;52.30;;;;;;4972830;28;20241;-61
2022/05/28 00:05:21;;;;;;;1.85;1.70;;;21.40;52.30;;;;;;4972511;28;20619;-60
2022/05/28 00:07:48;;;;;;;2.67;1.77;;;21.40;52.30;;;;;;4974045;28;20222;-60
2022/05/28 00:10:16;;;;;;;2.17;1.98;;;21.40;52.40;;;;;;4972668;28;20222;-60
2022/05/28 00:12:43;;;;;;;1.65;1.55;;;21.40;52.30;;;;;;4972881;28;20202;-60
2022/05/28 00:15:11;;;;;;;2.53;1.80;;;21.40;52.50;;;;;;4973940;28;20268;-60
2022/05/28 00:17:39;;;;;;;1.67;1.58;;;21.40;52.30;;;;;;4972609;28;20389;-60
2022/05/28 00:20:08;;;;;;;2.10;2.00;;;21.30;52.30;;;;;;4976142;28;20197;-61
2022/05/28 00:22:38;;;;;;;2.22;1.85;;;21.30;52.30;;;;;;4977373;28;20190;-60
2022/05/28 00:25:06;;;;;;;2.05;1.80;;;21.30;52.50;;;;;;4977405;28;20341;-61
2022/05/28 00:27:33;;;;;;;2.20;1.70;;;21.30;52.40;;;;;;4977308;28;20611;-60
2022/05/28 00:30:00;;;;;;;2.10;1.90;;;21.30;52.40;;;;;;4977305;28;20194;-61
2022/05/28 00:32:27;;;;;;;2.50;1.92;;;21.30;52.40;;;;;;4975956;28;20313;-61
2022/05/28 00:34:56;;;;;;;2.03;1.90;;;21.30;52.50;;;;;;4975997;28;20225;-60
2022/05/28 00:37:24;;;;;;;2.97;2.10;;;21.30;52.30;;;;;;4975912;28;20194;-60
2022/05/28 00:39:50;;;;;;;3.05;2.00;;;21.30;52.50;;;;;;4975887;28;20206;-61
2022/05/28 00:42:18;;;;;;;2.13;1.92;;;21.30;52.50;;;;;;4975846;28;20224;-61
2022/05/28 00:44:45;;;;;;;2.15;1.95;;;21.30;52.50;;;;;;4975671;28;20566;-61
2022/05/28 00:47:12;;;;;;;2.65;1.83;;;21.30;52.60;;;;;;4976920;28;20218;-60
2022/05/28 00:49:39;;;;;;;2.05;1.80;;;21.30;52.50;;;;;;4975825;28;20232;-61
2022/05/28 00:52:08;;;;;;;2.00;1.80;;;21.20;52.50;;;;;;4975620;28;20202;-60
2022/05/28 00:54:38;;;;;;;2.47;2.00;;;21.20;52.60;;;;;;4975640;28;20304;-61
2022/05/28 00:57:06;;;;;;;2.40;2.00;;;21.20;52.60;;;;;;4975556;28;20321;-61
2022/05/28 00:59:33;;;;;;;2.10;1.90;;;21.20;52.50;;;;;;4975976;28;20233;-60
2022/05/28 01:02:02;;;;;;;2.95;1.90;;;21.20;52.60;;;;;;4976776;28;20194;-60
2022/05/28 01:04:32;;;;;;;2.10;1.90;;;21.20;52.40;;;;;;4975389;28;20228;-60
2022/05/28 01:07:00;;;;;;;1.70;1.60;;;21.20;52.50;;;;;;4975439;28;20316;-60
2022/05/28 01:09:33;;;;;;;3.22;1.92;;;21.20;52.50;;;;;;4976595;28;20195;-61
2022/05/28 01:12:10;;;;;;;2.30;2.10;;;21.20;52.40;;;;;;4976812;28;20188;-60
2022/05/28 01:14:41;;;;;;;4.22;1.85;;;21.20;52.50;;;;;;4975234;28;20245;-61
2022/05/28 01:17:11;;;;;;;1.90;1.60;;;21.20;52.60;;;;;;4975587;28;20195;-60
2022/05/28 01:19:51;;;;;;;2.40;2.20;;;21.10;52.50;;;;;;4976547;28;20233;-61
2022/05/28 01:22:21;;;;;;;1.80;1.70;;;21.20;52.60;;;;;;4976592;28;20630;-61
2022/05/28 01:24:53;;;;;;;2.20;2.00;;;21.10;52.60;;;;;;4976266;28;20257;-60
2022/05/28 01:27:24;;;;;;;1.90;1.80;;;21.10;52.60;;;;;;4974993;28;20209;-61
2022/05/28 01:29:54;;;;;;;2.95;2.03;;;21.10;52.50;;;;;;4974794;28;20212;-61
2022/05/28 01:32:21;;;;;;;3.17;2.10;;;21.10;52.50;;;;;;4976318;28;20198;-60
2022/05/28 01:34:48;;;;;;;2.17;1.90;;;21.10;52.40;;;;;;4974825;28;20253;-60
2022/05/28 01:37:15;;;;;;;2.67;2.20;;;21.10;52.50;;;;;;4976399;28;20276;-60
2022/05/28 01:39:46;;;;;;;2.08;1.85;;;21.10;52.40;;;;;;4975083;28;20566;-61
2022/05/28 01:42:13;;;;;;;2.20;2.00;;;21.10;52.50;;;;;;4974892;28;20285;-60
2022/05/28 01:44:42;;;;;;;2.20;2.00;;;21.00;52.50;;;;;;4975010;28;20246;-60
2022/05/28 01:47:10;;;;;;;2.95;2.05;;;21.10;52.50;;;;;;4974898;28;20225;-60
2022/05/28 01:49:37;;;;;;;2.00;1.90;;;21.00;52.50;;;;;;4976801;28;20198;-61
2022/05/28 01:52:04;;;;;;;2.10;1.90;;;21.00;52.50;;;;;;4974704;28;20306;-61
2022/05/28 01:54:34;;;;;;;2.13;1.90;;;21.00;52.50;;;;;;4974422;28;20229;-61
2022/05/28 01:57:02;;;;;;;2.67;1.90;;;21.00;52.50;;;;;;4974566;28;20202;-61
2022/05/28 01:59:30;;;;;;;2.67;2.20;;;21.00;52.50;;;;;;4974858;28;20206;-60
2022/05/28 02:01:58;;;;;;;2.00;1.90;;;21.00;52.50;;;;;;4974433;28;20292;-60
2022/05/28 02:04:25;;;;;;;2.10;1.90;;;21.00;52.50;;;;;;4974361;28;20313;-61
2022/05/28 02:06:53;;;;;;;2.10;1.90;;;21.00;52.50;;;;;;4974309;28;20272;-61
2022/05/28 02:09:21;;;;;;;2.55;2.20;;;21.00;52.50;;;;;;4975711;28;20214;-60
2022/05/28 02:12:08;;;;;;;3.35;1.95;;;20.90;52.50;;;;;;4975789;28;20260;-60
2022/05/28 02:14:52;;;;;;;3.33;2.10;;;20.90;52.50;;;;;;4974140;28;20214;-60
2022/05/28 02:17:23;;;;;;;3.83;2.17;;;20.90;52.50;;;;;;4974372;28;20592;-60
2022/05/28 02:19:55;;;;;;;2.78;1.83;;;21.00;52.60;;;;;;4974014;28;20233;-60
2022/05/28 02:22:26;;;;;;;2.17;1.98;;;20.90;52.40;;;;;;4975477;28;20554;-61
2022/05/28 02:24:57;;;;;;;2.28;2.08;;;20.90;52.40;;;;;;4973894;28;20293;-61
2022/05/28 02:27:24;;;;;;;2.72;2.03;;;20.90;52.30;;;;;;4975707;28;20733;-60
2022/05/28 02:29:52;;;;;;;2.00;1.90;;;20.90;52.10;;;;;;4975064;28;20205;-61
2022/05/28 02:32:20;;;;;;;2.70;2.00;;;20.90;52.10;;;;;;4974104;28;20201;-61
2022/05/28 02:34:50;;;;;;;3.40;2.03;;;20.90;52.10;;;;;;4975041;28;20221;-60
2022/05/28 02:37:19;;;;;;;2.95;2.00;;;20.90;52.00;;;;;;4973824;28;20190;-61
2022/05/28 02:39:46;;;;;;;3.22;2.25;;;20.90;51.80;;;;;;4975019;28;20186;-60
2022/05/28 02:42:13;;;;;;;3.17;1.92;;;20.90;52.60;;;;;;4974386;28;20226;-61
2022/05/28 02:44:40;;;;;;;2.80;2.00;;;20.80;52.50;;;;;;4973619;28;20218;-60
2022/05/28 02:47:07;;;;;;;2.53;1.80;;;20.80;51.90;;;;;;4974796;28;20217;-61
2022/05/28 02:49:34;;;;;;;2.20;1.90;;;20.80;51.70;;;;;;4973770;28;20304;-60
2022/05/28 02:52:02;;;;;;;4.53;2.08;;;20.80;51.70;;;;;;4974841;28;20624;-60
2022/05/28 02:54:29;;;;;;;2.92;2.00;;;20.80;51.70;;;;;;4973377;28;20222;-60
2022/05/28 02:56:56;;;;;;;4.28;2.05;;;20.80;51.70;;;;;;4974841;28;20186;-60
2022/05/28 02:59:24;;;;;;;3.40;2.00;;;20.80;51.70;;;;;;4973588;28;20206;-61
2022/05/28 03:01:53;;;;;;;2.03;1.80;;;20.70;51.50;;;;;;4974588;28;20194;-60
2022/05/28 03:04:20;;;;;;;2.78;1.75;;;20.70;51.70;;;;;;4974491;28;20293;-60
2022/05/28 03:06:47;;;;;;;2.45;1.73;;;20.80;51.80;;;;;;4973422;28;20612;-60
2022/05/28 03:09:16;;;;;;;4.35;1.98;;;20.80;51.90;;;;;;4973174;28;20293;-61
2022/05/28 03:11:44;;;;;;;2.35;1.52;;;20.70;52.10;;;;;;4974465;28;20225;-60
2022/05/28 03:14:11;;;;;;;3.13;1.85;;;20.80;52.30;;;;;;4974382;28;20289;-60
2022/05/28 03:16:39;;;;;;;3.10;1.70;;;20.80;52.00;;;;;;4974643;28;20670;-60
2022/05/28 03:19:06;;;;;;;2.95;1.80;;;20.90;52.00;;;;;;4973116;28;20213;-60
2022/05/28 03:21:34;;;;;;;2.80;1.70;;;20.90;52.40;;;;;;4973217;28;20221;-60
2022/05/28 03:24:01;;;;;;;2.10;1.90;;;20.90;51.60;;;;;;4974214;28;20231;-60
2022/05/28 03:26:30;;;;;;;1.70;1.60;;;21.00;51.50;;;;;;4973198;28;20224;-60
2022/05/28 03:28:58;;;;;;;2.47;1.63;;;21.00;51.30;;;;;;4973306;28;20202;-61
2022/05/28 03:31:26;;;;;;;2.25;1.80;;;21.00;51.20;;;;;;4972975;28;20224;-60
2022/05/28 03:33:53;;;;;;;2.83;1.80;;;21.10;51.20;;;;;;4974104;28;20245;-61
2022/05/28 03:36:20;;;;;;;2.28;1.73;;;21.10;51.10;;;;;;4972871;28;20202;-61
2022/05/28 03:38:47;;;;;;;2.30;2.00;;;21.10;51.10;;;;;;4974460;28;20198;-60
2022/05/28 03:41:14;;;;;;;2.55;1.67;;;21.10;51.00;;;;;;4974097;28;20289;-61
2022/05/28 03:43:43;;;;;;;2.35;1.73;;;21.10;51.10;;;;;;4972763;28;20205;-60
2022/05/28 03:46:20;;;;;;;3.38;1.90;;;21.10;51.50;;;;;;4973083;28;20292;-60
2022/05/28 03:48:47;;;;;;;2.70;1.70;;;21.10;50.70;;;;;;4973012;28;20646;-61
2022/05/28 03:51:14;;;;;;;2.92;1.88;;;21.20;50.80;;;;;;4972845;28;20197;-61
2022/05/28 03:53:41;;;;;;;1.90;1.80;;;21.20;50.80;;;;;;4974085;28;20209;-61
2022/05/28 03:56:08;;;;;;;3.20;1.60;;;21.20;50.80;;;;;;4978006;28;20194;-61
2022/05/28 03:58:35;;;;;;;3.13;2.28;;;21.20;50.70;;;;;;4978104;28;20217;-61
2022/05/28 04:01:04;;;;;;;3.65;1.75;;;21.20;50.70;;;;;;4978196;28;20194;-61
2022/05/28 04:03:31;;;;;;;2.35;1.60;;;21.20;50.60;;;;;;4977766;28;20563;-61
2022/05/28 04:05:58;;;;;;;2.40;1.80;;;21.20;50.60;;;;;;4976582;28;20238;-60
2022/05/28 04:08:26;;;;;;;1.88;1.70;;;21.10;50.40;;;;;;4977962;28;20214;-61
2022/05/28 04:10:53;;;;;;;1.95;1.75;;;21.10;50.40;;;;;;4976650;28;20590;-61
2022/05/28 04:13:20;;;;;;;2.08;1.77;;;21.10;50.20;;;;;;4976639;28;20717;-60
2022/05/28 04:15:49;;;;;;;2.90;1.77;;;21.10;50.30;;;;;;4977779;28;20656;-61
2022/05/28 04:18:17;;;;;;;2.22;1.80;;;21.10;50.30;;;;;;4977505;28;20709;-61
2022/05/28 04:20:44;;;;;;;1.73;1.60;;;21.10;50.30;;;;;;4976337;28;20688;-61
2022/05/28 04:23:11;;;;;;;2.60;1.80;;;21.20;51.00;;;;;;4976155;28;20745;-60
2022/05/28 04:25:38;;;;;;;2.65;1.65;;;21.10;50.30;;;;;;4976113;28;20226;-61
2022/05/28 04:28:06;;;;;;;1.98;1.60;;;21.20;50.30;;;;;;4976110;28;20222;-60
2022/05/28 04:30:33;;;;;;;2.83;1.77;;;21.10;50.30;;;;;;4976449;28;20194;-61
2022/05/28 04:33:00;;;;;;;2.92;1.75;;;21.20;50.30;;;;;;4977510;28;20201;-61
2022/05/28 04:35:29;;;;;;;3.83;1.70;;;21.20;50.30;;;;;;4976157;28;20289;-61
2022/05/28 04:37:56;;;;;;;1.98;1.60;;;21.20;50.20;;;;;;4983279;28;20261;-61
2022/05/28 04:40:23;;;;;;;2.40;1.80;;;21.20;50.30;;;;;;4988276;28;20190;-61
2022/05/28 04:42:50;;;;;;;1.85;1.65;;;21.20;50.40;;;;;;4982476;28;20297;-61
2022/05/28 04:45:17;;;;;;;2.42;1.50;;;21.30;50.40;;;;;;4978666;28;20293;-61
2022/05/28 04:47:44;;;;;;;1.88;1.60;;;21.50;50.30;;;;;;4977372;28;20225;-61
2022/05/28 04:50:11;;;;;;;2.80;1.92;;;21.60;50.00;;;;;;4976974;28;20208;-61
2022/05/28 04:52:41;;;;;;;1.73;1.60;;;21.70;49.80;;;;;;4977877;28;20190;-61
2022/05/28 04:55:09;;;;;;;3.72;1.80;;;21.80;49.50;;;;;;4976155;28;20587;-62
2022/05/28 04:57:36;;;;;;;2.25;1.77;;;22.00;49.30;;;;;;4978968;28;20650;-61
2022/05/28 05:00:03;;;;;;;1.70;1.60;;;22.10;49.10;;;;;;4977051;28;20705;-61
2022/05/28 05:02:31;;;;;;;2.97;1.70;;;22.20;48.80;;;;;;4977093;28;20299;-61
2022/05/28 05:04:58;;;;;;;3.45;1.60;;;22.40;48.50;;;;;;4976030;28;20234;-61
2022/05/28 05:07:26;;;;;;;2.17;1.60;;;22.60;48.20;;;;;;4975530;28;20222;-60
2022/05/28 05:09:54;;;;;;;2.97;1.70;;;22.70;47.90;;;;;;4976987;28;20190;-60
2022/05/28 05:12:21;;;;;;;2.30;1.38;;;22.80;47.20;;;;;;4975437;28;20209;-60
2022/05/28 05:14:48;;;;;;;3.15;1.60;;;22.90;46.90;;;;;;4976515;28;20290;-60
2022/05/28 05:17:15;;;;;;;2.33;1.80;;;23.00;46.40;;;;;;4975348;28;20292;-60
2022/05/28 05:19:42;;;;;;;3.50;1.95;;;23.10;46.40;;;;;;4975027;28;20628;-61
2022/05/28 05:22:09;;;;;;;2.90;1.70;;;23.20;46.20;;;;;;4976535;28;20190;-61
2022/05/28 05:24:36;;;;;;;4.22;1.90;;;23.30;45.70;;;;;;4975192;28;20348;-60
2022/05/28 05:27:05;;;;;;;2.35;1.83;;;23.40;45.50;;;;;;5075525;23;20225;-72
2022/05/28 05:29:32;;;;;;;2.47;1.63;;;23.30;45.40;;;;;;4987888;28;20222;-73
2022/05/28 05:31:59;;;;;;;2.67;1.77;;;23.40;45.50;;;;;;4975353;28;20671;-73
2022/05/28 05:34:26;;;;;;;4.25;2.10;;;23.40;45.90;;;;;;4975337;28;20285;-73
2022/05/28 05:36:54;;;;;;;2.92;1.77;;;23.40;45.40;;;;;;4975608;28;20241;-72
2022/05/28 05:42:08;;;;;;;4.70;1.90;;;23.50;46.10;;;;;;4955715;29;20269;-73
2022/05/28 05:44:35;;;;;;;5.18;2.08;;;23.60;45.70;;;;;;4972090;28;20199;-73
2022/05/28 05:47:02;;;;;;;4.32;2.28;;;23.70;45.70;;;;;;4971845;28;20237;-73
2022/05/28 05:49:29;;;;;;;3.20;1.77;;;23.80;45.70;;;;;;4955794;28;20726;-73
2022/05/28 05:51:56;;;;;;;2.92;1.80;;;23.90;45.30;;;;;;4971727;28;20209;-74
2022/05/28 05:54:24;;;;;;;2.47;1.70;;;24.00;45.70;;;;;;5136343;23;20330;-69
2022/05/28 05:56:52;;;;;;;4.20;1.90;;;24.10;45.30;;;;;;4994225;28;20294;-70
2022/05/28 05:59:20;;;;;;;2.28;1.50;;;24.20;45.30;;;;;;4990268;28;20221;-70
2022/05/28 06:01:47;;;;;;;4.75;2.00;;;24.30;45.00;;;;;;4976237;28;20198;-70
2022/05/28 06:04:14;;;;;;;5.13;1.58;;;24.40;45.40;;;;;;4975553;28;20594;-70
2022/05/28 06:06:41;;;;;;;4.63;1.85;;;24.40;44.60;;;;;;4974709;28;20289;-70
2022/05/28 06:09:08;;;;;;;2.92;1.77;;;24.50;44.50;;;;;;4974435;28;20602;-69
2022/05/28 06:11:35;;;;;;;4.43;1.85;;;24.60;44.40;;;;;;4976035;28;20229;-69
2022/05/28 06:14:03;;;;;;;4.65;2.10;;;24.70;44.20;;;;;;4974460;28;20201;-69
2022/05/28 06:16:31;;;;;;;3.55;1.67;;;24.80;44.00;;;;;;4975079;28;20200;-69
2022/05/28 06:18:58;;;;;;;4.60;1.70;;;24.90;43.70;;;;;;4974483;28;20656;-69
2022/05/28 06:21:26;;;;;;;4.72;1.80;;;25.00;43.80;;;;;;4974408;28;20220;-69
2022/05/28 06:23:53;;;;;;;5.47;1.75;;;25.10;43.80;;;;;;4974287;28;20221;-69
2022/05/28 06:26:20;;;;;;;1.73;1.45;;;25.20;43.60;;;;;;4974374;28;20233;-70
2022/05/28 06:28:47;;;;;;;3.15;1.40;;;25.30;43.20;;;;;;4975388;28;20272;-69
2022/05/28 06:31:14;;;;;;;2.75;1.70;;;25.40;43.20;;;;;;4974464;28;20198;-69
2022/05/28 06:33:43;;;;;;;2.25;1.52;;;25.40;42.70;;;;;;4974163;28;20627;-70
2022/05/28 06:36:11;;;;;;;1.70;1.50;;;25.50;42.60;;;;;;4974660;28;20201;-69
2022/05/28 06:38:38;;;;;;;2.33;1.65;;;25.60;42.50;;;;;;4974283;28;20270;-69
2022/05/28 06:41:05;;;;;;;3.92;1.70;;;25.60;42.40;;;;;;4974212;28;20202;-69
2022/05/28 06:43:34;;;;;;;1.90;1.55;;;25.70;42.30;;;;;;4974042;28;20294;-69
2022/05/28 06:46:02;;;;;;;2.63;1.30;;;25.70;42.30;;;;;;4974140;28;20285;-69
2022/05/28 06:48:29;;;;;;;1.48;1.30;;;25.70;42.40;;;;;;4973971;28;20305;-69
2022/05/28 06:51:04;;;;;;;2.65;1.50;;;25.70;42.20;;;;;;4973795;28;20218;-69
2022/05/28 06:53:32;;;;;;;2.13;1.40;;;25.70;42.20;;;;;;4975063;28;20289;-73
2022/05/28 06:55:59;;;;;;;1.42;1.33;;;25.80;42.00;;;;;;4975361;28;20197;-73
2022/05/28 06:58:26;;;;;;;2.15;1.70;;;25.90;42.00;;;;;;5175943;23;20307;-72
2022/05/28 07:00:53;;;;;;;2.28;1.70;;;25.90;41.90;;;;;;4974891;28;20251;-73
2022/05/28 07:03:23;;;;;;;3.42;1.52;;;26.00;41.80;;;;;;5174863;23;20325;-72
2022/05/28 07:08:48;;;;;;;2.63;1.60;;;26.20;41.60;;;;;;5157159;23;20752;-73
2022/05/28 07:11:15;;;;;;;3.42;1.63;;;26.30;41.40;;;;;;4973708;28;20194;-74
2022/05/28 07:13:42;;;;;;;5.50;1.88;;;26.40;41.40;;;;;;4974555;28;20701;-73
2022/05/28 07:16:11;;;;;;;2.65;1.60;;;26.40;41.00;;;;;;4972709;28;20209;-73
2022/05/28 07:18:39;;;;;;;3.22;1.60;;;26.40;40.90;;;;;;4972798;28;20190;-73
2022/05/28 07:21:06;;;;;;;2.58;1.52;;;26.50;41.50;;;;;;4974154;28;20198;-73
2022/05/28 07:23:35;;;;;;;2.05;1.58;;;26.50;40.70;;;;;;4973530;28;20224;-73
2022/05/28 07:26:04;;;;;;;2.40;1.50;;;26.60;41.00;;;;;;4973485;28;20590;-72
2022/05/28 07:28:32;;;;;;;3.72;1.67;;;26.60;40.30;;;;;;4974870;28;20752;-73
2022/05/28 07:31:01;;;;;;;1.73;1.50;;;26.60;40.20;;;;;;4973723;28;20325;-72
2022/05/28 07:33:29;;;;;;;2.28;1.52;;;26.60;40.00;;;;;;4973302;28;20198;-72
2022/05/28 07:35:57;;;;;;;2.25;1.30;;;26.60;39.90;;;;;;4974812;28;20193;-72
2022/05/28 07:38:24;;;;;;;2.30;1.60;;;26.80;39.90;;;;;;4973557;28;20240;-71
2022/05/28 07:40:52;;;;;;;2.28;1.45;;;26.80;39.50;;;;;;4973540;28;20276;-72
2022/05/28 07:43:20;;;;;;;3.60;1.85;;;26.80;39.40;;;;;;4974552;28;20186;-73
2022/05/28 07:45:48;;;;;;;2.00;1.40;;;26.90;39.30;;;;;;4973389;28;20292;-72
2022/05/28 07:48:15;;;;;;;3.28;1.60;;;26.90;39.40;;;;;;4973352;28;20226;-72
2022/05/28 07:50:43;;;;;;;2.17;1.48;;;26.90;39.30;;;;;;4974219;28;20257;-72
2022/05/28 07:53:10;;;;;;;2.17;1.52;;;26.90;39.20;;;;;;4973479;28;20256;-73
2022/05/28 07:55:37;;;;;;;1.52;1.42;;;26.90;39.70;;;;;;4973118;28;20198;-73
2022/05/28 07:58:06;;;;;;;2.80;1.42;;;26.90;39.10;;;;;;4973372;28;20202;-72
2022/05/28 08:00:37;;;;;;;1.60;1.40;;;26.90;39.00;;;;;;4972975;28;20242;-72
2022/05/28 08:03:05;;;;;;;2.85;1.50;;;26.90;39.00;;;;;;4973045;28;20194;-72
2022/05/28 08:05:32;;;;;;;2.17;1.40;;;26.90;39.00;;;;;;4974223;28;20701;-73
2022/05/28 08:07:59;;;;;;;2.63;1.40;;;26.80;39.00;;;;;;4973079;28;20587;-72
2022/05/28 08:10:26;;;;;;;3.00;1.80;;;26.80;39.00;;;;;;4974382;28;20214;-72
2022/05/28 08:12:53;;;;;;;1.85;1.50;;;26.80;38.90;;;;;;4972938;28;20198;-73
2022/05/28 08:15:20;;;;;;;2.17;1.42;;;26.80;38.80;;;;;;4973068;28;20240;-72
2022/05/28 08:17:49;;;;;;;1.60;1.45;;;26.80;38.90;;;;;;4973532;28;20205;-73
2022/05/28 08:20:16;;;;;;;3.03;1.40;;;26.80;38.90;;;;;;4972949;28;20218;-73
2022/05/28 08:25:27;;;;;;;2.65;1.50;;;26.80;38.90;;;;;;4973670;28;20190;-72
2022/05/28 08:27:54;;;;;;;1.92;1.55;;;26.80;38.90;;;;;;4982515;28;20237;-73
2022/05/28 08:30:22;;;;;;;2.00;1.50;;;26.80;38.60;;;;;;4992567;28;20232;-72
2022/05/28 08:32:50;;;;;;;1.92;1.20;;;26.90;38.70;;;;;;4991496;28;20233;-72
2022/05/28 08:35:17;;;;;;;1.77;1.42;;;26.90;38.70;;;;;;4974181;28;20289;-73
2022/05/28 08:37:45;;;;;;;2.72;1.50;;;26.90;38.60;;;;;;4973230;28;20202;-72
2022/05/28 08:40:13;;;;;;;1.38;1.27;;;27.00;38.60;;;;;;4974049;28;20233;-72
2022/05/28 08:42:40;;;;;;;1.40;1.30;;;27.00;38.40;;;;;;4977823;28;20194;-73
2022/05/28 08:45:08;;;;;;;2.58;1.42;;;27.10;38.20;;;;;;4976220;28;20198;-72
2022/05/28 08:47:37;;;;;;;1.85;1.20;;;27.20;38.10;;;;;;4976379;28;20193;-72
2022/05/28 08:50:08;;;;;;;1.58;1.40;;;27.20;37.90;;;;;;4976459;28;20225;-71
2022/05/28 08:52:36;;;;;;;1.50;1.40;;;27.20;37.90;;;;;;4976420;28;20689;-73
2022/05/28 08:55:07;;;;;;;2.63;1.52;;;27.20;37.90;;;;;;4977062;28;20208;-73
2022/05/28 08:57:47;;;;;;;1.90;1.40;;;27.30;38.00;;;;;;4991413;28;20201;-72
2022/05/28 09:00:15;;;;;;;1.42;1.30;;;27.30;37.90;;;;;;4979210;28;20219;-72
2022/05/28 09:02:44;;;;;;;2.67;1.45;;;27.30;37.80;;;;;;4977507;28;20186;-72
2022/05/28 09:05:27;;;;;;;2.08;1.55;;;27.30;37.70;;;;;;4977508;28;20194;-72
2022/05/28 09:07:57;;;;;;;2.05;1.40;;;27.30;37.80;;;;;;4977191;28;20231;-73
2022/05/28 09:10:24;;;;;;;1.65;1.40;;;27.20;37.90;;;;;;4975762;28;20729;-73
2022/05/28 09:12:54;;;;;;;2.60;1.50;;;27.20;38.10;;;;;;4975945;28;20260;-72
2022/05/28 09:15:21;;;;;;;1.60;1.50;;;27.00;38.20;;;;;;4975732;28;20561;-73
2022/05/28 09:17:49;;;;;;;2.47;1.70;;;26.90;38.50;;;;;;4977001;28;20201;-72
2022/05/28 09:20:21;;;;;;;2.30;1.50;;;26.80;38.60;;;;;;4975842;28;20210;-73
2022/05/28 09:22:48;;;;;;;1.88;1.40;;;26.80;38.60;;;;;;4975651;28;20201;-74
2022/05/28 09:25:15;;;;;;;2.67;1.50;;;26.80;38.80;;;;;;4975515;28;20209;-73
2022/05/28 09:27:47;;;;;;;2.10;1.50;;;26.70;39.00;;;;;;4975903;28;20670;-73
2022/05/28 09:30:19;;;;;;;2.72;1.58;;;26.40;39.40;;;;;;4975839;28;20261;-72
2022/05/28 09:32:56;;;;;;;1.70;1.20;;;26.30;39.80;;;;;;4975734;28;20241;-72
2022/05/28 09:35:27;;;;;;;1.73;1.42;;;26.10;40.10;;;;;;4975726;28;20198;-72
2022/05/28 09:37:57;;;;;;;1.85;1.48;;;26.00;40.40;;;;;;4976775;28;20189;-72
2022/05/28 09:40:30;;;;;;;1.33;1.23;;;25.90;40.70;;;;;;4975462;28;20225;-73
2022/05/28 09:43:15;;;;;;;1.60;1.30;;;25.90;40.80;;;;;;4975460;28;20237;-72
2022/05/28 09:45:46;;;;;;;2.30;1.20;;;25.80;40.90;;;;;;4975428;28;20190;-71
2022/05/28 09:48:22;;;;;;;2.38;1.20;;;25.80;41.10;;;;;;4976910;28;20185;-72
2022/05/28 09:50:51;;;;;;;1.30;1.20;;;25.70;41.10;;;;;;4975885;28;20240;-72
2022/05/28 09:56:10;;;;;;;1.77;1.35;;;25.70;41.10;;;;;;4975143;28;20281;-73
2022/05/28 09:58:40;;;;;;;2.08;1.52;;;25.70;41.10;;;;;;4975045;28;20197;-73
2022/05/28 10:01:09;;;;;;;1.75;1.60;;;25.80;41.10;;;;;;4974766;28;20225;-72
2022/05/28 10:06:25;;;;;;;1.80;1.50;;;25.90;40.80;;;;;;4976236;28;20559;-72
2022/05/28 10:08:52;;;;;;;1.58;1.30;;;25.90;40.60;;;;;;4975780;28;20221;-73
2022/05/28 10:11:22;;;;;;;2.10;1.40;;;25.90;40.60;;;;;;4975993;28;20252;-73
2022/05/28 10:13:50;;;;;;;2.10;1.48;;;25.90;40.70;;;;;;4974545;28;20246;-73
2022/05/28 10:16:18;;;;;;;2.45;1.50;;;25.90;40.80;;;;;;4975979;28;20194;-73
2022/05/28 10:18:51;;;;;;;1.52;1.23;;;25.90;40.80;;;;;;4974337;28;20281;-73
2022/05/28 10:21:20;;;;;;;1.65;1.30;;;25.80;40.90;;;;;;4974525;28;20190;-73
2022/05/28 10:23:52;;;;;;;2.22;1.40;;;25.80;41.10;;;;;;4975860;28;20186;-73
2022/05/28 10:26:20;;;;;;;1.48;1.33;;;25.70;41.10;;;;;;4974247;28;20545;-73
2022/05/28 10:28:48;;;;;;;2.60;1.40;;;25.70;41.10;;;;;;4975551;28;20221;-73
2022/05/28 10:31:16;;;;;;;1.50;1.40;;;25.70;41.10;;;;;;4974478;28;20198;-74
2022/05/28 10:33:44;;;;;;;1.55;1.30;;;25.60;41.10;;;;;;4974332;28;20212;-73
2022/05/28 10:36:14;;;;;;;1.50;1.40;;;25.60;41.20;;;;;;4974209;28;20193;-73
2022/05/28 10:38:41;;;;;;;2.72;1.30;;;25.60;41.20;;;;;;4974239;28;20197;-73
2022/05/28 10:41:17;;;;;;;1.38;1.27;;;25.50;41.10;;;;;;4974391;28;20671;-73
2022/05/28 10:43:45;;;;;;;2.15;1.60;;;25.50;41.30;;;;;;4974070;28;20212;-73
2022/05/28 10:46:17;;;;;;;1.85;1.33;;;25.40;41.40;;;;;;4974012;28;20212;-73
2022/05/28 10:48:52;;;;;;;1.48;1.30;;;25.40;41.50;;;;;;4975228;28;20202;-71
2022/05/28 10:51:21;;;;;;;1.30;1.20;;;25.30;41.70;;;;;;4973951;28;20224;-71
2022/05/28 10:54:09;;;;;;;1.20;1.10;;;25.30;41.80;;;;;;4974957;28;20202;-73
2022/05/28 10:56:49;;;;;;;1.40;1.30;;;25.20;41.80;;;;;;4973822;28;20376;-73
2022/05/28 10:59:24;;;;;;;1.65;1.40;;;25.20;41.80;;;;;;4973785;28;20241;-73
2022/05/28 11:01:55;;;;;;;2.22;1.38;;;25.20;42.00;;;;;;4974154;28;20202;-72
2022/05/28 11:04:50;;;;;;;1.42;1.20;;;25.20;42.00;;;;;;4974626;28;20265;-73
2022/05/28 11:07:44;;;;;;;2.35;1.50;;;25.20;41.90;;;;;;4972102;28;20738;-73
2022/05/28 11:10:32;;;;;;;1.23;1.13;;;25.20;41.90;;;;;;4975406;28;20619;-73
2022/05/28 11:13:24;;;;;;;1.38;1.27;;;25.20;41.90;;;;;;4975532;28;20248;-72
2022/05/28 11:16:20;;;;;;;1.40;1.30;;;25.20;41.80;;;;;;4977264;28;20202;-73
2022/05/28 11:19:03;;;;;;;1.50;1.40;;;25.30;42.00;;;;;;4978700;28;20224;-72
2022/05/28 11:21:53;;;;;;;1.65;1.02;;;25.30;41.80;;;;;;4975603;28;20196;-73
2022/05/28 11:24:46;;;;;;;1.73;1.35;;;25.40;41.90;;;;;;4974886;28;20204;-73
2022/05/28 11:27:17;;;;;;;1.45;1.20;;;25.40;41.90;;;;;;4970088;28;20202;-73
2022/05/28 11:29:55;;;;;;;1.50;1.40;;;25.40;41.80;;;;;;4974038;28;20340;-73
2022/05/28 11:32:25;;;;;;;2.22;1.30;;;25.40;41.90;;;;;;4974487;28;20207;-74
2022/05/28 11:34:54;;;;;;;1.67;1.20;;;25.40;41.80;;;;;;4973414;28;20201;-74
2022/05/28 11:37:23;;;;;;;2.25;1.50;;;25.40;42.40;;;;;;4974834;28;20197;-75
2022/05/28 11:39:55;;;;;;;1.95;1.20;;;25.40;41.70;;;;;;4974501;28;20246;-74
2022/05/28 11:42:29;;;;;;;2.40;1.30;;;25.30;41.70;;;;;;4974969;28;20546;-74
2022/05/28 11:44:59;;;;;;;1.30;1.20;;;25.30;41.70;;;;;;4973246;28;20206;-72
2022/05/28 11:47:32;;;;;;;2.08;1.50;;;25.30;41.70;;;;;;4973127;28;20248;-74
2022/05/28 11:52:47;;;;;;;1.63;1.30;;;25.30;41.80;;;;;;4973218;28;20186;-74
2022/05/28 11:55:15;;;;;;;1.63;1.20;;;25.30;41.80;;;;;;4974292;28;20198;-73
2022/05/28 11:57:44;;;;;;;2.00;1.40;;;25.30;41.70;;;;;;4974557;28;20197;-73
2022/05/28 12:00:13;;;;;;;1.45;1.30;;;25.30;41.70;;;;;;4974459;28;20214;-74
2022/05/28 12:02:42;;;;;;;2.00;1.35;;;25.30;41.70;;;;;;5010441;23;20236;-72
2022/05/28 12:05:20;;;;;;;2.33;1.38;;;25.30;41.70;;;;;;4992539;28;20189;-72
2022/05/28 12:07:47;;;;;;;2.05;1.33;;;25.30;41.70;;;;;;4992621;28;20197;-72
2022/05/28 12:10:17;;;;;;;1.30;1.20;;;25.30;41.80;;;;;;4992254;28;20217;-72
2022/05/28 12:12:53;;;;;;;1.42;1.30;;;25.30;41.90;;;;;;4979525;28;20218;-72
2022/05/28 12:15:26;;;;;;;1.30;1.10;;;25.20;41.80;;;;;;4974017;28;20256;-72
2022/05/28 12:17:57;;;;;;;1.30;1.20;;;25.20;42.00;;;;;;4978377;28;20178;-72
2022/05/28 12:20:28;;;;;;;1.95;1.40;;;25.20;42.00;;;;;;4978226;28;20197;-72
2022/05/28 12:22:57;;;;;;;1.83;1.20;;;25.20;42.10;;;;;;4976611;28;20296;-72
2022/05/28 12:25:32;;;;;;;1.60;1.23;;;25.20;42.00;;;;;;4976635;28;20205;-72
2022/05/28 12:28:23;;;;;;;1.20;1.10;;;25.20;42.00;;;;;;4978192;28;20178;-72
2022/05/28 12:30:53;;;;;;;1.30;1.20;;;25.20;42.10;;;;;;4976713;28;20738;-73
2022/05/28 12:33:23;;;;;;;1.33;1.17;;;25.20;42.10;;;;;;4976659;28;20233;-72
2022/05/28 12:35:52;;;;;;;1.30;1.20;;;25.20;42.10;;;;;;4978016;28;20212;-72
2022/05/28 12:38:31;;;;;;;1.85;1.40;;;25.10;42.10;;;;;;4976539;28;20273;-72
2022/05/28 12:41:00;;;;;;;1.35;1.25;;;25.10;42.20;;;;;;4976432;28;20197;-72
2022/05/28 12:43:29;;;;;;;1.52;1.30;;;25.10;42.20;;;;;;4976321;28;20324;-72
2022/05/28 12:45:58;;;;;;;1.90;1.40;;;25.10;42.20;;;;;;4977549;28;20214;-71
2022/05/28 12:48:27;;;;;;;1.20;1.20;;;25.10;42.30;;;;;;4977487;28;20626;-72
2022/05/28 12:51:05;;;;;;;1.48;1.30;;;25.10;42.20;;;;;;4977615;28;20222;-72
2022/05/28 12:53:34;;;;;;;1.50;1.40;;;25.10;42.30;;;;;;4976230;28;20256;-72
2022/05/28 12:56:03;;;;;;;1.65;1.20;;;25.10;42.30;;;;;;4977486;28;20194;-72
2022/05/28 12:58:31;;;;;;;1.40;1.30;;;25.10;42.30;;;;;;4976251;28;20633;-72
2022/05/28 13:01:01;;;;;;;1.88;1.30;;;25.00;42.40;;;;;;4976238;28;20245;-72
2022/05/28 13:03:30;;;;;;;1.30;1.20;;;25.00;42.40;;;;;;4977209;28;20217;-72
2022/05/28 13:06:03;;;;;;;2.05;1.42;;;25.00;42.50;;;;;;4976124;28;20225;-72
2022/05/28 13:08:32;;;;;;;1.50;1.40;;;25.00;42.50;;;;;;4976100;28;20194;-72
2022/05/28 13:11:03;;;;;;;1.10;1.10;;;25.00;42.50;;;;;;4975887;28;20229;-72
2022/05/28 13:13:59;;;;;;;1.60;1.20;;;25.00;43.30;;;;;;4977558;28;20285;-72
2022/05/28 13:16:33;;;;;;;1.17;1.08;;;25.00;42.60;;;;;;4976389;28;20190;-72